sensor_id;sensor_type;location;lat;lon;timestamp;pressure;altitude;pressure_sealevel;temperature;humidity
74079;BME280;62437;51.544;-3.276;2022-08-21T00:02:24;100959.85;;;18.64;44.20
74079;BME280;62437;51.544;-3.276;2022-08-21T00:04:47;100957.79;;;18.53;43.72
74079;BME280;62437;51.544;-3.276;2022-08-21T00:07:12;100954.29;;;18.53;44.02
74079;BME280;62437;51.544;-3.276;2022-08-21T00:09:38;100953.85;;;18.52;44.91
74079;BME280;62437;51.544;-3.276;2022-08-21T00:12:04;100949.55;;;18.70;43.50
74079;BME280;62437;51.544;-3.276;2022-08-21T00:14:29;100948.26;;;18.52;44.61
74079;BME280;62437;51.544;-3.276;2022-08-21T00:16:55;100948.42;;;18.78;44.41
74079;BME280;62437;51.544;-3.276;2022-08-21T00:19:20;100948.33;;;18.80;43.64
74079;BME280;62437;51.544;-3.276;2022-08-21T00:21:46;100948.92;;;18.29;43.96
74079;BME280;62437;51.544;-3.276;2022-08-21T00:24:12;100946.52;;;18.60;44.22
74079;BME280;62437;51.544;-3.276;2022-08-21T00:26:37;100946.33;;;18.43;43.81
74079;BME280;62437;51.544;-3.276;2022-08-21T00:29:03;100940.97;;;18.56;43.98
74079;BME280;62437;51.544;-3.276;2022-08-21T00:31:28;100938.34;;;18.70;44.34
74079;BME280;62437;51.544;-3.276;2022-08-21T00:33:54;100939.49;;;18.45;43.84
74079;BME280;62437;51.544;-3.276;2022-08-21T00:36:19;100941.21;;;18.57;44.12
74079;BME280;62437;51.544;-3.276;2022-08-21T00:38:44;100933.15;;;18.53;43.88
74079;BME280;62437;51.544;-3.276;2022-08-21T00:41:11;100936.45;;;18.62;43.91
74079;BME280;62437;51.544;-3.276;2022-08-21T00:43:37;100940.55;;;18.47;43.61
74079;BME280;62437;51.544;-3.276;2022-08-21T00:46:03;100940.62;;;18.64;44.35
74079;BME280;62437;51.544;-3.276;2022-08-21T00:48:27;100946.90;;;18.86;43.45
74079;BME280;62437;51.544;-3.276;2022-08-21T00:50:58;100945.83;;;18.80;44.18
74079;BME280;62437;51.544;-3.276;2022-08-21T00:53:19;100943.28;;;18.71;43.27
74079;BME280;62437;51.544;-3.276;2022-08-21T00:55:45;100940.89;;;18.71;43.85
74079;BME280;62437;51.544;-3.276;2022-08-21T00:58:11;100940.98;;;18.89;43.60
74079;BME280;62437;51.544;-3.276;2022-08-21T01:00:37;100938.61;;;18.69;44.15
74079;BME280;62437;51.544;-3.276;2022-08-21T01:03:04;100939.33;;;18.77;44.77
74079;BME280;62437;51.544;-3.276;2022-08-21T01:05:27;100941.21;;;18.61;45.02
74079;BME280;62437;51.544;-3.276;2022-08-21T01:07:53;100944.56;;;18.46;44.29
74079;BME280;62437;51.544;-3.276;2022-08-21T01:10:18;100939.39;;;18.38;43.89
74079;BME280;62437;51.544;-3.276;2022-08-21T01:12:43;100939.91;;;18.34;44.16
74079;BME280;62437;51.544;-3.276;2022-08-21T01:15:10;100938.77;;;18.62;43.75
74079;BME280;62437;51.544;-3.276;2022-08-21T01:17:35;100937.21;;;18.65;44.18
74079;BME280;62437;51.544;-3.276;2022-08-21T01:20:01;100939.20;;;18.33;44.64
74079;BME280;62437;51.544;-3.276;2022-08-21T01:22:25;100936.03;;;18.37;44.40
74079;BME280;62437;51.544;-3.276;2022-08-21T01:24:51;100939.40;;;17.93;44.80
74079;BME280;62437;51.544;-3.276;2022-08-21T01:27:16;100935.88;;;18.09;44.50
74079;BME280;62437;51.544;-3.276;2022-08-21T01:29:48;100932.82;;;17.98;44.70
74079;BME280;62437;51.544;-3.276;2022-08-21T01:32:11;100931.82;;;18.15;44.77
74079;BME280;62437;51.544;-3.276;2022-08-21T01:34:34;100927.91;;;17.82;45.82
74079;BME280;62437;51.544;-3.276;2022-08-21T01:36:59;100931.07;;;17.79;45.38
74079;BME280;62437;51.544;-3.276;2022-08-21T01:39:25;100924.13;;;17.80;44.97
74079;BME280;62437;51.544;-3.276;2022-08-21T01:41:50;100922.97;;;17.52;45.32
74079;BME280;62437;51.544;-3.276;2022-08-21T01:44:16;100928.58;;;17.73;45.57
74079;BME280;62437;51.544;-3.276;2022-08-21T01:46:41;100926.08;;;17.76;45.14
74079;BME280;62437;51.544;-3.276;2022-08-21T01:49:07;100924.82;;;17.77;45.16
74079;BME280;62437;51.544;-3.276;2022-08-21T01:51:32;100925.12;;;17.87;45.08
74079;BME280;62437;51.544;-3.276;2022-08-21T01:53:58;100922.56;;;17.54;46.56
74079;BME280;62437;51.544;-3.276;2022-08-21T01:56:25;100924.08;;;17.78;45.15
74079;BME280;62437;51.544;-3.276;2022-08-21T01:58:49;100922.79;;;17.85;45.48
74079;BME280;62437;51.544;-3.276;2022-08-21T02:01:15;100922.79;;;17.67;45.05
74079;BME280;62437;51.544;-3.276;2022-08-21T02:03:41;100924.37;;;17.92;44.94
74079;BME280;62437;51.544;-3.276;2022-08-21T02:06:11;100925.04;;;17.55;44.89
74079;BME280;62437;51.544;-3.276;2022-08-21T02:08:31;100922.50;;;17.79;45.15
74079;BME280;62437;51.544;-3.276;2022-08-21T02:10:57;100921.33;;;17.83;45.12
74079;BME280;62437;51.544;-3.276;2022-08-21T02:13:22;100922.66;;;17.61;45.23
74079;BME280;62437;51.544;-3.276;2022-08-21T02:15:47;100924.03;;;17.58;45.34
74079;BME280;62437;51.544;-3.276;2022-08-21T02:18:13;100921.33;;;17.54;45.54
74079;BME280;62437;51.544;-3.276;2022-08-21T02:20:41;100918.73;;;17.68;45.88
74079;BME280;62437;51.544;-3.276;2022-08-21T02:23:05;100920.83;;;17.62;45.10
74079;BME280;62437;51.544;-3.276;2022-08-21T02:25:29;100925.64;;;18.09;44.59
74079;BME280;62437;51.544;-3.276;2022-08-21T02:27:55;100925.63;;;17.95;45.04
74079;BME280;62437;51.544;-3.276;2022-08-21T02:30:22;100925.04;;;17.51;45.16
74079;BME280;62437;51.544;-3.276;2022-08-21T02:32:46;100925.46;;;17.94;45.26
74079;BME280;62437;51.544;-3.276;2022-08-21T02:35:12;100923.13;;;17.72;45.01
74079;BME280;62437;51.544;-3.276;2022-08-21T02:37:43;100915.51;;;17.51;45.54
74079;BME280;62437;51.544;-3.276;2022-08-21T02:40:03;100911.41;;;17.79;45.29
74079;BME280;62437;51.544;-3.276;2022-08-21T02:42:28;100909.02;;;17.42;44.87
74079;BME280;62437;51.544;-3.276;2022-08-21T02:44:53;100906.00;;;17.98;45.42
74079;BME280;62437;51.544;-3.276;2022-08-21T02:47:19;100901.36;;;17.80;45.33
74079;BME280;62437;51.544;-3.276;2022-08-21T02:49:44;100902.34;;;18.01;44.94
74079;BME280;62437;51.544;-3.276;2022-08-21T02:52:10;100899.89;;;17.59;45.42
74079;BME280;62437;51.544;-3.276;2022-08-21T02:54:35;100896.31;;;17.38;45.24
74079;BME280;62437;51.544;-3.276;2022-08-21T02:57:01;100890.89;;;17.61;45.40
74079;BME280;62437;51.544;-3.276;2022-08-21T02:59:26;100892.44;;;17.87;45.01
74079;BME280;62437;51.544;-3.276;2022-08-21T03:01:52;100892.70;;;17.94;45.10
74079;BME280;62437;51.544;-3.276;2022-08-21T03:04:17;100890.51;;;17.87;45.89
74079;BME280;62437;51.544;-3.276;2022-08-21T03:06:43;100890.42;;;18.11;44.53
74079;BME280;62437;51.544;-3.276;2022-08-21T03:09:08;100887.40;;;17.67;44.87
74079;BME280;62437;51.544;-3.276;2022-08-21T03:11:34;100886.04;;;17.62;45.17
74079;BME280;62437;51.544;-3.276;2022-08-21T03:14:00;100885.58;;;17.62;45.12
74079;BME280;62437;51.544;-3.276;2022-08-21T03:16:25;100890.75;;;17.75;45.12
74079;BME280;62437;51.544;-3.276;2022-08-21T03:18:51;100884.47;;;17.79;45.17
74079;BME280;62437;51.544;-3.276;2022-08-21T03:21:16;100884.67;;;17.87;44.76
74079;BME280;62437;51.544;-3.276;2022-08-21T03:23:41;100878.03;;;17.82;44.80
74079;BME280;62437;51.544;-3.276;2022-08-21T03:26:07;100875.16;;;18.07;45.15
74079;BME280;62437;51.544;-3.276;2022-08-21T03:28:33;100878.22;;;18.06;44.45
74079;BME280;62437;51.544;-3.276;2022-08-21T03:30:58;100873.88;;;18.02;44.92
74079;BME280;62437;51.544;-3.276;2022-08-21T03:33:24;100866.52;;;18.16;44.77
74079;BME280;62437;51.544;-3.276;2022-08-21T03:35:58;100868.02;;;17.85;44.96
74079;BME280;62437;51.544;-3.276;2022-08-21T03:38:15;100867.99;;;17.90;44.59
74079;BME280;62437;51.544;-3.276;2022-08-21T03:40:41;100868.04;;;17.73;44.37
74079;BME280;62437;51.544;-3.276;2022-08-21T03:43:06;100870.90;;;17.79;45.02
74079;BME280;62437;51.544;-3.276;2022-08-21T03:45:31;100870.96;;;18.02;44.48
74079;BME280;62437;51.544;-3.276;2022-08-21T03:47:58;100876.58;;;18.24;44.35
74079;BME280;62437;51.544;-3.276;2022-08-21T03:50:32;100881.11;;;18.07;45.23
74079;BME280;62437;51.544;-3.276;2022-08-21T03:52:47;100881.42;;;17.89;44.76
74079;BME280;62437;51.544;-3.276;2022-08-21T03:55:13;100881.58;;;17.94;44.15
74079;BME280;62437;51.544;-3.276;2022-08-21T03:57:39;100878.71;;;18.08;44.54
74079;BME280;62437;51.544;-3.276;2022-08-21T04:00:05;100878.53;;;18.11;44.13
74079;BME280;62437;51.544;-3.276;2022-08-21T04:02:29;100879.59;;;17.97;44.86
74079;BME280;62437;51.544;-3.276;2022-08-21T04:04:55;100876.21;;;18.10;44.72
74079;BME280;62437;51.544;-3.276;2022-08-21T04:07:21;100875.71;;;17.77;45.11
74079;BME280;62437;51.544;-3.276;2022-08-21T04:09:46;100879.89;;;18.21;44.53
74079;BME280;62437;51.544;-3.276;2022-08-21T04:12:12;100887.13;;;18.03;45.35
74079;BME280;62437;51.544;-3.276;2022-08-21T04:14:37;100893.61;;;17.83;45.00
74079;BME280;62437;51.544;-3.276;2022-08-21T04:17:03;100898.63;;;17.49;45.28
74079;BME280;62437;51.544;-3.276;2022-08-21T04:19:28;100898.62;;;18.03;44.80
74079;BME280;62437;51.544;-3.276;2022-08-21T04:21:54;100902.11;;;17.96;44.72
74079;BME280;62437;51.544;-3.276;2022-08-21T04:24:19;100906.84;;;17.75;44.37
74079;BME280;62437;51.544;-3.276;2022-08-21T04:26:45;100909.17;;;17.72;46.12
74079;BME280;62437;51.544;-3.276;2022-08-21T04:29:11;100909.39;;;17.88;44.85
74079;BME280;62437;51.544;-3.276;2022-08-21T04:31:36;100911.29;;;17.87;44.93
74079;BME280;62437;51.544;-3.276;2022-08-21T04:34:02;100914.02;;;17.86;45.25
74079;BME280;62437;51.544;-3.276;2022-08-21T04:36:27;100906.48;;;18.00;44.42
74079;BME280;62437;51.544;-3.276;2022-08-21T04:38:52;100898.16;;;17.75;44.37
74079;BME280;62437;51.544;-3.276;2022-08-21T04:41:18;100892.36;;;17.85;44.52
74079;BME280;62437;51.544;-3.276;2022-08-21T04:43:44;100891.07;;;17.90;45.16
74079;BME280;62437;51.544;-3.276;2022-08-21T04:46:09;100891.28;;;17.77;44.89
74079;BME280;62437;51.544;-3.276;2022-08-21T04:48:35;100889.17;;;17.63;45.56
74079;BME280;62437;51.544;-3.276;2022-08-21T04:51:03;100876.84;;;17.51;45.03
74079;BME280;62437;51.544;-3.276;2022-08-21T04:53:31;100879.30;;;17.48;45.45
74079;BME280;62437;51.544;-3.276;2022-08-21T04:55:53;100875.69;;;17.53;45.48
74079;BME280;62437;51.544;-3.276;2022-08-21T04:58:19;100871.81;;;17.41;45.38
74079;BME280;62437;51.544;-3.276;2022-08-21T05:00:43;100877.41;;;17.48;46.19
74079;BME280;62437;51.544;-3.276;2022-08-21T05:03:10;100887.53;;;17.40;45.69
74079;BME280;62437;51.544;-3.276;2022-08-21T05:05:34;100901.47;;;17.25;46.23
74079;BME280;62437;51.544;-3.276;2022-08-21T05:08:01;100905.39;;;17.21;45.97
74079;BME280;62437;51.544;-3.276;2022-08-21T05:10:25;100917.90;;;17.76;45.53
74079;BME280;62437;51.544;-3.276;2022-08-21T05:12:50;100923.35;;;17.43;45.46
74079;BME280;62437;51.544;-3.276;2022-08-21T05:15:16;100927.62;;;17.29;45.03
74079;BME280;62437;51.544;-3.276;2022-08-21T05:17:42;100922.42;;;17.54;45.40
74079;BME280;62437;51.544;-3.276;2022-08-21T05:20:08;100924.03;;;17.64;45.22
74079;BME280;62437;51.544;-3.276;2022-08-21T05:22:32;100921.59;;;17.68;45.29
74079;BME280;62437;51.544;-3.276;2022-08-21T05:24:58;100916.49;;;17.85;44.83
74079;BME280;62437;51.544;-3.276;2022-08-21T05:27:24;100916.20;;;17.61;44.82
74079;BME280;62437;51.544;-3.276;2022-08-21T05:29:49;100918.35;;;17.84;44.76
74079;BME280;62437;51.544;-3.276;2022-08-21T05:32:15;100913.45;;;17.80;44.51
74079;BME280;62437;51.544;-3.276;2022-08-21T05:34:41;100913.67;;;17.85;44.58
74079;BME280;62437;51.544;-3.276;2022-08-21T05:37:06;100909.68;;;17.78;44.85
74079;BME280;62437;51.544;-3.276;2022-08-21T05:39:32;100899.51;;;17.86;45.43
74079;BME280;62437;51.544;-3.276;2022-08-21T05:41:58;100895.64;;;18.08;44.50
74079;BME280;62437;51.544;-3.276;2022-08-21T05:44:23;100893.46;;;17.85;45.33
74079;BME280;62437;51.544;-3.276;2022-08-21T05:46:49;100894.08;;;17.87;44.48
74079;BME280;62437;51.544;-3.276;2022-08-21T05:49:14;100897.57;;;17.97;44.30
74079;BME280;62437;51.544;-3.276;2022-08-21T05:51:40;100898.07;;;18.05;44.76
74079;BME280;62437;51.544;-3.276;2022-08-21T05:54:06;100901.69;;;17.80;45.32
74079;BME280;62437;51.544;-3.276;2022-08-21T05:56:31;100907.30;;;17.96;45.46
74079;BME280;62437;51.544;-3.276;2022-08-21T05:58:57;100906.06;;;17.86;44.68
74079;BME280;62437;51.544;-3.276;2022-08-21T06:01:22;100909.90;;;18.23;44.29
74079;BME280;62437;51.544;-3.276;2022-08-21T06:03:48;100913.12;;;18.03;45.49
74079;BME280;62437;51.544;-3.276;2022-08-21T06:06:13;100918.13;;;17.93;45.76
74079;BME280;62437;51.544;-3.276;2022-08-21T06:08:39;100922.62;;;17.97;44.85
74079;BME280;62437;51.544;-3.276;2022-08-21T06:11:06;100920.16;;;18.27;44.73
74079;BME280;62437;51.544;-3.276;2022-08-21T06:13:31;100916.56;;;18.33;44.59
74079;BME280;62437;51.544;-3.276;2022-08-21T06:16:03;100910.89;;;17.86;45.43
74079;BME280;62437;51.544;-3.276;2022-08-21T06:18:22;100912.03;;;17.48;45.12
74079;BME280;62437;51.544;-3.276;2022-08-21T06:20:47;100908.57;;;17.78;44.63
74079;BME280;62437;51.544;-3.276;2022-08-21T06:23:13;100910.77;;;18.28;44.63
74079;BME280;62437;51.544;-3.276;2022-08-21T06:25:38;100903.53;;;18.36;43.96
74079;BME280;62437;51.544;-3.276;2022-08-21T06:28:06;100905.07;;;18.12;44.65
74079;BME280;62437;51.544;-3.276;2022-08-21T06:30:30;100905.42;;;17.94;45.78
74079;BME280;62437;51.544;-3.276;2022-08-21T06:32:55;100902.90;;;18.36;43.88
74079;BME280;62437;51.544;-3.276;2022-08-21T06:35:20;100902.95;;;18.74;43.61
74079;BME280;62437;51.544;-3.276;2022-08-21T06:37:46;100905.61;;;18.39;46.22
74079;BME280;62437;51.544;-3.276;2022-08-21T06:40:11;100905.11;;;18.41;44.05
74079;BME280;62437;51.544;-3.276;2022-08-21T06:42:39;100899.06;;;18.52;43.71
74079;BME280;62437;51.544;-3.276;2022-08-21T06:45:04;100901.60;;;18.44;43.74
74079;BME280;62437;51.544;-3.276;2022-08-21T06:47:28;100906.06;;;18.71;44.03
74079;BME280;62437;51.544;-3.276;2022-08-21T06:49:54;100910.12;;;18.56;43.64
74079;BME280;62437;51.544;-3.276;2022-08-21T06:52:20;100915.77;;;18.80;43.59
74079;BME280;62437;51.544;-3.276;2022-08-21T06:54:45;100914.53;;;18.53;44.51
74079;BME280;62437;51.544;-3.276;2022-08-21T06:57:11;100908.96;;;18.33;43.90
74079;BME280;62437;51.544;-3.276;2022-08-21T06:59:36;100909.19;;;18.37;44.04
74079;BME280;62437;51.544;-3.276;2022-08-21T07:02:03;100907.19;;;18.71;43.45
74079;BME280;62437;51.544;-3.276;2022-08-21T07:04:27;100907.52;;;18.83;43.86
74079;BME280;62437;51.544;-3.276;2022-08-21T07:06:53;100913.94;;;18.81;43.92
74079;BME280;62437;51.544;-3.276;2022-08-21T07:09:19;100922.74;;;18.60;45.35
74079;BME280;62437;51.544;-3.276;2022-08-21T07:11:44;100924.31;;;18.58;43.92
74079;BME280;62437;51.544;-3.276;2022-08-21T07:14:10;100930.04;;;18.37;43.97
74079;BME280;62437;51.544;-3.276;2022-08-21T07:16:35;100928.49;;;18.23;44.27
74079;BME280;62437;51.544;-3.276;2022-08-21T07:19:01;100933.77;;;18.67;47.04
74079;BME280;62437;51.544;-3.276;2022-08-21T07:21:27;100934.65;;;18.09;45.14
74079;BME280;62437;51.544;-3.276;2022-08-21T07:23:52;100946.68;;;18.09;46.11
74079;BME280;62437;51.544;-3.276;2022-08-21T07:26:20;100949.18;;;18.31;47.09
74079;BME280;62437;51.544;-3.276;2022-08-21T07:28:43;100948.66;;;18.47;45.19
74079;BME280;62437;51.544;-3.276;2022-08-21T07:31:10;100950.45;;;18.52;48.27
74079;BME280;62437;51.544;-3.276;2022-08-21T07:33:34;100952.83;;;18.09;46.45
74079;BME280;62437;51.544;-3.276;2022-08-21T07:36:00;100958.03;;;18.27;46.81
74079;BME280;62437;51.544;-3.276;2022-08-21T07:38:25;100953.29;;;18.61;45.64
74079;BME280;62437;51.544;-3.276;2022-08-21T07:40:53;100951.52;;;18.28;45.64
74079;BME280;62437;51.544;-3.276;2022-08-21T07:43:16;100950.17;;;18.54;46.16
74079;BME280;62437;51.544;-3.276;2022-08-21T07:45:42;100954.29;;;18.63;45.56
74079;BME280;62437;51.544;-3.276;2022-08-21T07:48:07;100955.23;;;18.46;45.86
74079;BME280;62437;51.544;-3.276;2022-08-21T07:50:32;100952.11;;;18.47;45.63
74079;BME280;62437;51.544;-3.276;2022-08-21T07:52:58;100951.88;;;18.75;46.43
74079;BME280;62437;51.544;-3.276;2022-08-21T07:55:24;100959.58;;;18.86;46.03
74079;BME280;62437;51.544;-3.276;2022-08-21T07:57:49;100963.86;;;18.64;47.16
74079;BME280;62437;51.544;-3.276;2022-08-21T08:00:17;100965.13;;;18.52;47.51
74079;BME280;62437;51.544;-3.276;2022-08-21T08:02:43;100962.63;;;18.60;47.70
74079;BME280;62437;51.544;-3.276;2022-08-21T08:05:09;100958.61;;;18.54;46.36
74079;BME280;62437;51.544;-3.276;2022-08-21T08:07:32;100950.84;;;18.63;46.33
74079;BME280;62437;51.544;-3.276;2022-08-21T08:09:57;100948.07;;;18.71;46.26
74079;BME280;62437;51.544;-3.276;2022-08-21T08:12:23;100949.49;;;18.85;45.89
74079;BME280;62437;51.544;-3.276;2022-08-21T08:14:48;100948.99;;;18.84;46.42
74079;BME280;62437;51.544;-3.276;2022-08-21T08:17:14;100944.90;;;19.00;45.90
74079;BME280;62437;51.544;-3.276;2022-08-21T08:19:40;100938.99;;;18.83;46.65
74079;BME280;62437;51.544;-3.276;2022-08-21T08:22:13;100934.34;;;18.96;46.94
74079;BME280;62437;51.544;-3.276;2022-08-21T08:24:31;100931.42;;;19.33;47.11
74079;BME280;62437;51.544;-3.276;2022-08-21T08:26:56;100931.06;;;19.19;48.07
74079;BME280;62437;51.544;-3.276;2022-08-21T08:29:22;100924.16;;;19.28;47.12
74079;BME280;62437;51.544;-3.276;2022-08-21T08:31:48;100917.86;;;19.57;47.30
74079;BME280;62437;51.544;-3.276;2022-08-21T08:34:13;100917.02;;;19.78;48.55
74079;BME280;62437;51.544;-3.276;2022-08-21T08:36:39;100918.91;;;19.39;46.47
74079;BME280;62437;51.544;-3.276;2022-08-21T08:39:05;100919.16;;;19.53;46.08
74079;BME280;62437;51.544;-3.276;2022-08-21T08:41:31;100917.87;;;19.49;48.62
74079;BME280;62437;51.544;-3.276;2022-08-21T08:44:03;100916.18;;;19.97;46.85
74079;BME280;62437;51.544;-3.276;2022-08-21T08:46:29;100922.80;;;20.09;47.31
74079;BME280;62437;51.544;-3.276;2022-08-21T08:48:53;100924.31;;;20.03;47.43
74079;BME280;62437;51.544;-3.276;2022-08-21T08:51:19;100925.57;;;18.92;49.01
74079;BME280;62437;51.544;-3.276;2022-08-21T08:53:46;100919.88;;;20.04;47.22
74079;BME280;62437;51.544;-3.276;2022-08-21T08:56:04;100916.62;;;19.52;48.62
74079;BME280;62437;51.544;-3.276;2022-08-21T08:58:36;100922.43;;;19.76;48.56
74079;BME280;62437;51.544;-3.276;2022-08-21T09:00:55;100928.78;;;20.11;48.39
74079;BME280;62437;51.544;-3.276;2022-08-21T09:03:21;100936.31;;;20.16;47.32
74079;BME280;62437;51.544;-3.276;2022-08-21T09:05:47;100942.40;;;20.15;47.24
74079;BME280;62437;51.544;-3.276;2022-08-21T09:08:27;100943.03;;;20.46;47.93
74079;BME280;62437;51.544;-3.276;2022-08-21T09:10:44;100940.47;;;20.16;48.17
74079;BME280;62437;51.544;-3.276;2022-08-21T09:13:07;100942.14;;;20.49;47.48
74079;BME280;62437;51.544;-3.276;2022-08-21T09:15:32;100947.41;;;19.99;47.40
74079;BME280;62437;51.544;-3.276;2022-08-21T09:18:07;100948.87;;;20.00;48.43
74079;BME280;62437;51.544;-3.276;2022-08-21T09:20:27;100949.90;;;20.08;47.41
74079;BME280;62437;51.544;-3.276;2022-08-21T09:22:53;100943.28;;;20.49;47.22
74079;BME280;62437;51.544;-3.276;2022-08-21T09:25:15;100938.71;;;20.95;46.45
74079;BME280;62437;51.544;-3.276;2022-08-21T09:27:35;100937.81;;;21.21;45.98
74079;BME280;62437;51.544;-3.276;2022-08-21T09:30:00;100936.13;;;20.85;46.31
74079;BME280;62437;51.544;-3.276;2022-08-21T09:32:28;100931.06;;;20.62;46.67
74079;BME280;62437;51.544;-3.276;2022-08-21T09:35:05;100929.37;;;20.92;45.98
74079;BME280;62437;51.544;-3.276;2022-08-21T09:37:17;100930.25;;;21.48;45.72
74079;BME280;62437;51.544;-3.276;2022-08-21T09:39:43;100934.21;;;21.55;45.66
74079;BME280;62437;51.544;-3.276;2022-08-21T09:42:23;100932.78;;;21.82;45.62
74079;BME280;62437;51.544;-3.276;2022-08-21T09:44:36;100928.39;;;21.40;45.31
74079;BME280;62437;51.544;-3.276;2022-08-21T09:47:00;100926.18;;;21.42;44.78
74079;BME280;62437;51.544;-3.276;2022-08-21T09:49:31;100931.98;;;21.33;45.47
74079;BME280;62437;51.544;-3.276;2022-08-21T09:51:54;100933.31;;;21.34;45.72
74079;BME280;62437;51.544;-3.276;2022-08-21T09:54:18;100931.82;;;21.45;45.12
74079;BME280;62437;51.544;-3.276;2022-08-21T09:56:52;100935.92;;;21.24;44.53
74079;BME280;62437;51.544;-3.276;2022-08-21T09:59:16;100934.52;;;21.22;45.46
74079;BME280;62437;51.544;-3.276;2022-08-21T10:01:41;100936.09;;;21.60;45.14
74079;BME280;62437;51.544;-3.276;2022-08-21T10:04:03;100932.48;;;21.87;44.55
74079;BME280;62437;51.544;-3.276;2022-08-21T10:06:26;100933.26;;;21.72;44.55
74079;BME280;62437;51.544;-3.276;2022-08-21T10:08:49;100935.10;;;21.58;45.36
74079;BME280;62437;51.544;-3.276;2022-08-21T10:11:17;100941.36;;;21.43;44.46
74079;BME280;62437;51.544;-3.276;2022-08-21T10:13:47;100944.71;;;21.51;45.20
74079;BME280;62437;51.544;-3.276;2022-08-21T10:16:16;100945.47;;;21.46;44.34
74079;BME280;62437;51.544;-3.276;2022-08-21T10:18:36;100941.51;;;21.89;44.34
74079;BME280;62437;51.544;-3.276;2022-08-21T10:21:02;100939.65;;;21.77;44.44
74079;BME280;62437;51.544;-3.276;2022-08-21T10:25:52;100938.28;;;21.98;44.56
74079;BME280;62437;51.544;-3.276;2022-08-21T10:28:19;100935.33;;;21.57;44.78
74079;BME280;62437;51.544;-3.276;2022-08-21T10:30:44;100944.80;;;22.02;44.04
74079;BME280;62437;51.544;-3.276;2022-08-21T10:33:16;100941.21;;;21.78;43.99
74079;BME280;62437;51.544;-3.276;2022-08-21T10:35:33;100945.37;;;22.38;43.83
74079;BME280;62437;51.544;-3.276;2022-08-21T10:40:25;100948.75;;;21.84;43.29
74079;BME280;62437;51.544;-3.276;2022-08-21T10:42:54;100946.66;;;22.09;43.32
74079;BME280;62437;51.544;-3.276;2022-08-21T10:45:27;100935.53;;;22.29;42.60
74079;BME280;62437;51.544;-3.276;2022-08-21T10:47:42;100937.72;;;22.10;43.07
74079;BME280;62437;51.544;-3.276;2022-08-21T10:50:10;100938.80;;;22.54;42.00
74079;BME280;62437;51.544;-3.276;2022-08-21T10:52:41;100939.55;;;22.57;42.09
74079;BME280;62437;51.544;-3.276;2022-08-21T10:54:59;100942.12;;;22.74;41.99
74079;BME280;62437;51.544;-3.276;2022-08-21T10:57:26;100944.15;;;22.49;41.86
74079;BME280;62437;51.544;-3.276;2022-08-21T10:59:47;100946.17;;;22.25;41.71
74079;BME280;62437;51.544;-3.276;2022-08-21T11:02:15;100942.03;;;22.31;42.66
74079;BME280;62437;51.544;-3.276;2022-08-21T11:04:41;100938.06;;;22.44;41.39
74079;BME280;62437;51.544;-3.276;2022-08-21T11:07:04;100937.83;;;22.55;41.56
74079;BME280;62437;51.544;-3.276;2022-08-21T11:09:26;100944.12;;;22.79;42.30
74079;BME280;62437;51.544;-3.276;2022-08-21T11:11:57;100939.44;;;22.74;42.18
74079;BME280;62437;51.544;-3.276;2022-08-21T11:14:23;100940.74;;;22.84;42.40
74079;BME280;62437;51.544;-3.276;2022-08-21T11:16:45;100941.98;;;22.80;40.74
74079;BME280;62437;51.544;-3.276;2022-08-21T11:19:13;100942.74;;;22.68;41.45
74079;BME280;62437;51.544;-3.276;2022-08-21T11:21:39;100951.04;;;22.81;41.47
74079;BME280;62437;51.544;-3.276;2022-08-21T11:24:03;100948.52;;;22.86;39.44
74079;BME280;62437;51.544;-3.276;2022-08-21T11:26:30;100943.38;;;22.50;40.49
74079;BME280;62437;51.544;-3.276;2022-08-21T11:28:55;100940.48;;;22.51;39.49
74079;BME280;62437;51.544;-3.276;2022-08-21T11:31:27;100931.00;;;22.42;40.35
74079;BME280;62437;51.544;-3.276;2022-08-21T11:33:49;100931.65;;;22.74;41.05
74079;BME280;62437;51.544;-3.276;2022-08-21T11:36:13;100932.31;;;23.03;40.42
74079;BME280;62437;51.544;-3.276;2022-08-21T11:38:37;100931.58;;;23.26;41.11
74079;BME280;62437;51.544;-3.276;2022-08-21T11:41:06;100936.47;;;22.95;41.33
74079;BME280;62437;51.544;-3.276;2022-08-21T11:43:36;100931.91;;;22.55;41.31
74079;BME280;62437;51.544;-3.276;2022-08-21T11:45:52;100936.70;;;22.57;41.31
74079;BME280;62437;51.544;-3.276;2022-08-21T11:48:31;100933.88;;;22.96;41.56
74079;BME280;62437;51.544;-3.276;2022-08-21T11:50:40;100932.18;;;23.49;40.63
74079;BME280;62437;51.544;-3.276;2022-08-21T11:53:09;100934.04;;;23.73;39.85
74079;BME280;62437;51.544;-3.276;2022-08-21T11:55:35;100939.28;;;23.30;40.75
74079;BME280;62437;51.544;-3.276;2022-08-21T11:57:59;100942.01;;;22.96;41.08
74079;BME280;62437;51.544;-3.276;2022-08-21T12:00:23;100946.41;;;22.95;40.84
74079;BME280;62437;51.544;-3.276;2022-08-21T12:02:49;100950.61;;;23.29;40.72
74079;BME280;62437;51.544;-3.276;2022-08-21T12:07:39;100951.39;;;23.02;40.35
74079;BME280;62437;51.544;-3.276;2022-08-21T12:10:06;100942.44;;;23.38;39.87
74079;BME280;62437;51.544;-3.276;2022-08-21T12:12:30;100941.64;;;23.34;40.86
74079;BME280;62437;51.544;-3.276;2022-08-21T12:15:15;100938.26;;;22.88;41.49
74079;BME280;62437;51.544;-3.276;2022-08-21T12:17:22;100939.14;;;23.04;41.08
74079;BME280;62437;51.544;-3.276;2022-08-21T12:19:45;100934.72;;;23.18;41.02
74079;BME280;62437;51.544;-3.276;2022-08-21T12:22:12;100932.11;;;22.81;41.58
74079;BME280;62437;51.544;-3.276;2022-08-21T12:24:39;100938.94;;;23.07;41.56
74079;BME280;62437;51.544;-3.276;2022-08-21T12:27:14;100926.81;;;23.49;39.76
74079;BME280;62437;51.544;-3.276;2022-08-21T12:29:29;100929.27;;;23.44;40.49
74079;BME280;62437;51.544;-3.276;2022-08-21T12:31:57;100927.01;;;23.33;40.25
74079;BME280;62437;51.544;-3.276;2022-08-21T12:34:20;100920.71;;;23.61;39.72
74079;BME280;62437;51.544;-3.276;2022-08-21T12:36:46;100921.00;;;23.68;38.62
74079;BME280;62437;51.544;-3.276;2022-08-21T12:39:13;100920.86;;;23.55;38.71